Time;durP1;ratioP1;P1;durP2;ratioP2;P2;SDS_P1;SDS_P2;PMS_P1;PMS_P2;Temp;Humidity;BMP_temperature;BMP_pressure;BME280_temperature;BME280_humidity;BME280_pressure;Samples;Min_cycle;Max_cycle;Signal;HPM_P1;HPM_P2
2023/10/12 00:01:26;;;;;;;18.77;3.20;;;13.30;99.90;;;;;;4894778;29;20530;-56
2023/10/12 00:04:05;;;;;;;18.85;3.38;;;13.30;99.90;;;;;;4896842;29;20181;-59
2023/10/12 00:06:36;;;;;;;24.05;3.97;;;13.30;99.90;;;;;;4896781;29;20210;-58
2023/10/12 00:09:16;;;;;;;26.42;3.80;;;13.30;99.90;;;;;;4896932;29;20192;-58
2023/10/12 00:12:07;;;;;;;19.65;3.38;;;13.30;99.90;;;;;;4894883;29;20259;-58
2023/10/12 00:14:33;;;;;;;21.42;3.50;;;13.40;99.90;;;;;;4907923;29;20200;-57
2023/10/12 00:16:59;;;;;;;24.10;3.70;;;13.40;99.90;;;;;;4896323;29;20185;-59
2023/10/12 00:19:25;;;;;;;20.70;3.40;;;13.40;99.90;;;;;;4911577;29;20201;-59
2023/10/12 00:21:59;;;;;;;18.75;3.72;;;13.40;99.90;;;;;;4891368;29;20232;-58
2023/10/12 00:24:26;;;;;;;31.45;3.85;;;13.40;99.90;;;;;;4894371;29;20282;-59
2023/10/12 00:26:53;;;;;;;20.77;3.63;;;13.40;99.90;;;;;;4895755;29;20188;-58
2023/10/12 00:29:19;;;;;;;25.70;3.67;;;13.40;99.90;;;;;;4896128;29;20213;-60
2023/10/12 00:31:47;;;;;;;19.38;3.40;;;13.40;99.90;;;;;;4894896;29;20192;-60
2023/10/12 00:34:15;;;;;;;21.08;3.45;;;13.50;99.90;;;;;;4895675;29;20200;-59
2023/10/12 00:36:45;;;;;;;24.17;4.18;;;13.50;99.90;;;;;;4896424;29;20184;-59
2023/10/12 00:39:13;;;;;;;19.90;3.88;;;13.50;99.90;;;;;;4894765;29;20212;-60
2023/10/12 00:41:45;;;;;;;22.02;3.42;;;13.50;99.90;;;;;;4895490;29;20287;-60
2023/10/12 00:44:12;;;;;;;18.67;3.30;;;13.40;99.90;;;;;;4894481;29;20184;-60
2023/10/12 00:46:40;;;;;;;25.38;3.53;;;13.50;99.90;;;;;;4889253;29;20235;-60
2023/10/12 00:52:35;;;;;;;21.58;3.97;;;13.40;99.90;;;;;;4896433;29;20192;-59
2023/10/12 00:54:56;;;;;;;24.17;3.88;;;13.50;99.90;;;;;;4887770;29;20680;-59
2023/10/12 00:57:23;;;;;;;26.67;3.80;;;13.40;99.90;;;;;;4895784;29;20189;-61
2023/10/12 00:59:51;;;;;;;21.77;3.88;;;13.40;99.90;;;;;;4896805;29;20568;-63
2023/10/12 01:02:21;;;;;;;20.08;3.47;;;13.40;99.90;;;;;;4894538;29;20309;-59
2023/10/12 01:04:53;;;;;;;23.77;4.20;;;13.40;99.90;;;;;;4896253;29;20330;-61
2023/10/12 01:07:36;;;;;;;30.92;3.53;;;13.40;99.90;;;;;;4892868;29;20224;-61
2023/10/12 01:10:06;;;;;;;32.22;4.88;;;13.40;99.90;;;;;;4896461;29;20224;-61
2023/10/12 01:12:34;;;;;;;23.15;4.00;;;13.40;99.90;;;;;;4896007;29;20225;-60
2023/10/12 01:15:11;;;;;;;21.05;3.80;;;13.40;99.90;;;;;;4894749;29;20589;-60
2023/10/12 01:17:40;;;;;;;20.00;3.92;;;13.40;99.90;;;;;;4893294;29;20284;-60
2023/10/12 01:20:16;;;;;;;32.08;3.75;;;13.40;99.90;;;;;;4895791;29;20195;-61
2023/10/12 01:22:42;;;;;;;24.25;3.70;;;13.40;99.90;;;;;;4896670;29;20199;-61
2023/10/12 01:25:19;;;;;;;19.90;3.15;;;13.40;99.90;;;;;;4895739;29;20184;-59
2023/10/12 01:27:46;;;;;;;26.65;3.65;;;13.30;99.90;;;;;;4894066;29;20268;-61
2023/10/12 01:30:45;;;;;;;20.52;3.75;;;13.30;99.90;;;;;;4896060;29;20213;-60
2023/10/12 01:33:04;;;;;;;19.02;3.35;;;13.20;99.90;;;;;;4899460;29;20301;-60
2023/10/12 01:35:33;;;;;;;27.25;3.85;;;13.20;99.90;;;;;;4899133;29;20197;-60
2023/10/12 01:38:00;;;;;;;18.38;3.20;;;13.20;99.90;;;;;;4897601;29;20185;-61
2023/10/12 01:43:15;;;;;;;22.58;3.42;;;13.10;99.90;;;;;;4899904;29;20642;-60
2023/10/12 01:45:41;;;;;;;16.30;3.50;;;13.10;99.90;;;;;;4897688;29;20228;-60
2023/10/12 01:48:10;;;;;;;20.65;3.13;;;13.10;99.90;;;;;;4897795;29;20184;-60
2023/10/12 01:50:39;;;;;;;18.10;3.15;;;13.10;99.90;;;;;;4909357;29;20220;-60
2023/10/12 01:55:50;;;;;;;17.58;2.60;;;13.00;99.90;;;;;;4898056;29;20193;-61
2023/10/12 01:58:20;;;;;;;14.70;2.63;;;13.00;99.90;;;;;;4893955;29;20200;-60
2023/10/12 02:00:52;;;;;;;21.63;3.33;;;13.00;99.90;;;;;;4910354;29;20209;-60
2023/10/12 02:03:32;;;;;;;15.23;2.60;;;13.00;99.90;;;;;;4897687;29;20215;-60
2023/10/12 02:06:04;;;;;;;18.65;3.35;;;12.90;99.90;;;;;;4886133;29;20188;-60
2023/10/12 02:08:39;;;;;;;22.30;3.25;;;12.90;99.90;;;;;;4896529;29;20296;-61
2023/10/12 02:13:48;;;;;;;17.83;2.60;;;12.90;99.90;;;;;;4897423;29;20197;-59
2023/10/12 02:16:23;;;;;;;17.25;2.80;;;12.80;99.90;;;;;;4894909;29;20189;-59
2023/10/12 02:18:50;;;;;;;16.55;3.38;;;12.80;99.90;;;;;;4895561;29;20312;-61
2023/10/12 02:21:21;;;;;;;14.93;3.00;;;12.80;99.90;;;;;;4880941;29;20637;-61
2023/10/12 02:26:38;;;;;;;13.95;2.70;;;12.80;99.90;;;;;;4897658;29;20260;-61
2023/10/12 02:31:45;;;;;;;17.23;3.03;;;12.80;99.90;;;;;;4874239;29;20261;-61
2023/10/12 02:34:17;;;;;;;17.98;3.40;;;12.80;99.90;;;;;;4895065;29;20660;-61
2023/10/12 02:39:42;;;;;;;14.40;3.58;;;12.90;99.90;;;;;;4894530;29;20260;-61
2023/10/12 02:47:22;;;;;;;25.13;3.60;;;12.90;99.90;;;;;;4893574;29;20216;-61
2023/10/12 02:52:36;;;;;;;23.23;3.40;;;12.80;99.90;;;;;;4890824;29;20197;-60
2023/10/12 02:55:08;;;;;;;25.35;4.20;;;12.90;99.90;;;;;;4898192;29;20180;-60
2023/10/12 02:57:37;;;;;;;20.33;3.33;;;12.90;99.90;;;;;;4891490;29;20284;-60
2023/10/12 03:00:12;;;;;;;19.77;3.75;;;12.90;99.90;;;;;;4897968;29;20189;-62
2023/10/12 03:02:44;;;;;;;23.65;3.75;;;12.90;99.90;;;;;;4891366;29;20188;-61
2023/10/12 03:05:17;;;;;;;19.27;3.95;;;12.80;99.90;;;;;;4893336;29;20650;-60
2023/10/12 03:07:44;;;;;;;20.67;3.30;;;12.80;99.90;;;;;;4888110;29;20256;-61
2023/10/12 03:10:26;;;;;;;17.50;3.10;;;12.80;99.90;;;;;;4893148;29;20272;-61
2023/10/12 03:12:55;;;;;;;16.05;3.40;;;12.80;99.90;;;;;;4897312;29;20208;-61
2023/10/12 03:15:46;;;;;;;19.63;3.55;;;12.80;99.90;;;;;;4894995;29;20192;-61
2023/10/12 03:18:12;;;;;;;22.60;4.05;;;12.80;99.90;;;;;;4894942;29;20232;-60
2023/10/12 03:20:38;;;;;;;15.52;3.35;;;12.80;99.90;;;;;;4895193;29;20276;-61
2023/10/12 03:23:16;;;;;;;21.17;4.25;;;12.80;99.90;;;;;;4895318;29;20200;-61
2023/10/12 03:25:46;;;;;;;16.73;3.53;;;12.80;99.90;;;;;;4896469;29;20244;-61
2023/10/12 03:28:43;;;;;;;16.15;4.15;;;12.80;99.90;;;;;;4894851;29;20184;-61
2023/10/12 03:31:33;;;;;;;15.82;4.07;;;12.80;99.90;;;;;;4894554;29;20212;-62
2023/10/12 03:34:00;;;;;;;19.73;4.00;;;12.80;99.90;;;;;;4897097;29;20272;-61
2023/10/12 03:36:32;;;;;;;23.25;3.95;;;12.80;99.90;;;;;;4895014;29;20216;-61
2023/10/12 03:52:29;;;;;;;12.00;2.97;;;12.70;99.90;;;;;;4907872;29;20200;-63
2023/10/12 03:57:50;;;;;;;18.40;2.88;;;12.70;99.90;;;;;;4895487;29;20181;-62
2023/10/12 04:21:39;;;;;;;13.50;2.42;;;12.70;99.90;;;;;;4896030;29;20232;-65
2023/10/12 04:27:09;;;;;;;17.00;2.60;;;12.70;99.90;;;;;;4895570;29;20608;-65
2023/10/12 04:29:32;;;;;;;18.80;2.72;;;12.60;99.90;;;;;;4896354;29;20228;-66
2023/10/12 04:32:10;;;;;;;27.30;3.25;;;12.70;99.90;;;;;;4895971;29;20196;-66
2023/10/12 04:34:47;;;;;;;14.90;2.70;;;12.70;99.90;;;;;;4893838;29;20279;-66
2023/10/12 04:37:18;;;;;;;12.77;2.58;;;12.70;99.90;;;;;;4896052;29;20184;-66
2023/10/12 04:39:56;;;;;;;12.85;2.78;;;12.60;99.90;;;;;;4896459;29;20351;-66
2023/10/12 04:42:33;;;;;;;16.38;2.38;;;12.60;99.90;;;;;;4895594;29;20195;-66
2023/10/12 04:45:23;;;;;;;16.20;3.00;;;12.60;99.90;;;;;;4895114;29;20184;-66
2023/10/12 04:47:55;;;;;;;15.15;2.30;;;12.60;99.90;;;;;;4893598;29;20673;-67
2023/10/12 04:50:37;;;;;;;13.30;2.40;;;12.60;99.90;;;;;;4895741;29;20252;-68
2023/10/12 04:53:08;;;;;;;13.07;2.60;;;12.60;99.90;;;;;;4893387;29;20666;-68
2023/10/12 04:55:35;;;;;;;10.95;2.40;;;12.60;99.90;;;;;;4879006;29;20233;-68
2023/10/12 05:00:48;;;;;;;11.60;2.47;;;12.60;99.90;;;;;;4892032;29;20674;-68
2023/10/12 05:03:35;;;;;;;17.92;2.42;;;12.60;99.90;;;;;;4893409;29;20203;-68
2023/10/12 05:06:04;;;;;;;12.18;2.60;;;12.60;99.90;;;;;;4895818;29;20585;-67
2023/10/12 05:08:33;;;;;;;13.40;3.08;;;12.60;99.90;;;;;;4899372;29;20219;-67
2023/10/12 05:10:59;;;;;;;21.10;2.53;;;12.60;99.90;;;;;;4899426;29;20232;-67
2023/10/12 05:13:25;;;;;;;9.77;2.45;;;12.50;99.90;;;;;;4898020;29;20201;-69
2023/10/12 05:15:55;;;;;;;13.85;2.30;;;12.50;99.90;;;;;;4898954;29;20222;-68
2023/10/12 05:18:25;;;;;;;21.45;2.65;;;12.50;99.90;;;;;;4897921;29;20193;-68
2023/10/12 05:20:52;;;;;;;17.85;2.72;;;12.50;99.90;;;;;;4899034;29;20241;-69
2023/10/12 05:23:18;;;;;;;12.93;2.78;;;12.50;99.90;;;;;;4900026;29;20227;-69
2023/10/12 05:25:52;;;;;;;14.43;2.63;;;12.40;99.90;;;;;;4897804;29;20688;-68
2023/10/12 05:28:35;;;;;;;20.80;2.70;;;12.40;99.90;;;;;;4898907;29;20225;-70
2023/10/12 05:36:10;;;;;;;19.35;2.65;;;12.30;99.90;;;;;;4899137;29;20211;-69
2023/10/12 05:38:50;;;;;;;14.98;2.65;;;12.30;99.90;;;;;;4891995;29;20708;-69
2023/10/12 05:41:23;;;;;;;10.38;2.30;;;12.30;99.90;;;;;;4894903;29;20196;-69
2023/10/12 05:43:48;;;;;;;13.45;2.65;;;12.20;99.90;;;;;;4899330;29;20184;-70
2023/10/12 05:46:14;;;;;;;12.98;2.10;;;12.20;99.90;;;;;;4910642;29;20284;-70
2023/10/12 05:48:51;;;;;;;13.48;2.83;;;12.20;99.90;;;;;;4889712;29;20609;-69
2023/10/12 05:51:27;;;;;;;17.70;3.13;;;12.20;99.90;;;;;;4896041;29;20292;-70
2023/10/12 05:54:01;;;;;;;14.02;2.53;;;12.20;99.90;;;;;;4898668;29;20203;-69
2023/10/12 05:56:29;;;;;;;17.35;2.90;;;12.10;99.90;;;;;;4897906;29;20732;-72
2023/10/12 05:58:55;;;;;;;15.85;2.40;;;12.10;99.90;;;;;;4898612;29;20220;-69
2023/10/12 06:01:35;;;;;;;14.05;2.60;;;12.10;99.90;;;;;;4894499;29;20603;-68
2023/10/12 06:04:08;;;;;;;19.30;2.55;;;12.10;99.90;;;;;;4898000;29;20271;-68
2023/10/12 06:06:43;;;;;;;11.88;2.30;;;12.00;99.90;;;;;;4898327;29;20188;-67
2023/10/12 06:09:23;;;;;;;27.98;2.80;;;12.00;99.90;;;;;;4899609;29;20202;-71
2023/10/12 06:11:53;;;;;;;13.85;2.58;;;12.00;99.90;;;;;;4910974;29;20197;-72
2023/10/12 06:14:22;;;;;;;18.95;2.80;;;12.00;99.90;;;;;;4898535;29;20202;-70
2023/10/12 06:16:54;;;;;;;13.20;2.70;;;12.00;99.90;;;;;;4899359;29;20192;-67
2023/10/12 06:19:26;;;;;;;17.15;2.60;;;12.00;99.90;;;;;;4897457;29;20599;-70
2023/10/12 06:21:53;;;;;;;17.55;2.97;;;12.00;99.90;;;;;;4911131;29;20596;-70
2023/10/12 06:24:35;;;;;;;17.00;4.25;;;12.10;99.90;;;;;;4896327;29;20221;-69
2023/10/12 06:27:22;;;;;;;21.17;2.75;;;12.10;99.90;;;;;;4895486;29;20181;-69
2023/10/12 06:29:52;;;;;;;17.77;3.10;;;12.10;99.90;;;;;;4897290;29;20223;-68
2023/10/12 06:32:34;;;;;;;18.98;2.85;;;12.10;99.90;;;;;;4894520;29;20185;-71
2023/10/12 06:37:49;;;;;;;16.50;2.58;;;12.10;99.90;;;;;;4897833;29;20197;-69
2023/10/12 06:45:48;;;;;;;16.75;2.88;;;12.10;99.90;;;;;;4893777;29;20185;-71
2023/10/12 06:51:05;;;;;;;13.30;2.72;;;12.10;99.90;;;;;;4896420;29;20243;-70
2023/10/12 06:53:36;;;;;;;13.82;3.10;;;12.10;99.90;;;;;;4897730;29;20196;-70
2023/10/12 06:58:45;;;;;;;9.77;2.40;;;12.20;99.90;;;;;;4897617;29;20359;-71
2023/10/12 07:01:26;;;;;;;12.90;2.40;;;12.20;99.90;;;;;;4895165;29;20204;-70
2023/10/12 07:03:53;;;;;;;16.83;3.08;;;12.20;99.90;;;;;;4896688;29;20193;-70
2023/10/12 07:06:19;;;;;;;12.93;2.65;;;12.20;99.90;;;;;;4896599;29;20180;-68
2023/10/12 07:08:46;;;;;;;15.85;2.83;;;12.30;99.90;;;;;;4896194;29;20656;-70
2023/10/12 07:11:20;;;;;;;16.15;3.47;;;12.30;99.90;;;;;;4896133;29;20205;-71
2023/10/12 07:13:47;;;;;;;20.00;3.13;;;12.40;99.90;;;;;;4897780;29;20220;-70
2023/10/12 07:16:16;;;;;;;19.08;3.08;;;12.40;99.90;;;;;;4896589;29;20203;-70
2023/10/12 07:18:45;;;;;;;19.27;3.20;;;12.40;99.90;;;;;;4897758;29;20255;-69
2023/10/12 07:21:21;;;;;;;15.68;3.03;;;12.50;99.90;;;;;;4896307;29;20557;-69
2023/10/12 07:23:57;;;;;;;13.70;2.85;;;12.60;99.90;;;;;;4896122;29;20286;-68
2023/10/12 07:26:30;;;;;;;14.52;3.50;;;12.70;99.90;;;;;;4895185;29;20188;-70
2023/10/12 07:28:57;;;;;;;12.05;3.40;;;12.80;99.90;;;;;;4891314;29;20662;-68
2023/10/12 07:36:35;;;;;;;16.50;3.63;;;13.00;99.90;;;;;;4895611;29;20215;-70
2023/10/12 07:39:28;;;;;;;10.40;3.03;;;13.10;99.90;;;;;;4897231;29;20654;-70
2023/10/12 07:41:55;;;;;;;15.93;3.50;;;13.10;99.90;;;;;;4895384;29;20243;-69
2023/10/12 07:44:25;;;;;;;17.20;4.30;;;13.20;99.90;;;;;;4880157;29;20264;-68
2023/10/12 07:46:53;;;;;;;16.98;3.17;;;13.30;99.90;;;;;;4895702;29;20196;-69
2023/10/12 07:57:19;;;;;;;17.02;3.40;;;13.50;99.90;;;;;;4891866;29;20223;-69
2023/10/12 08:02:42;;;;;;;13.02;2.80;;;13.60;99.90;;;;;;4894349;29;20223;-69
2023/10/12 08:08:08;;;;;;;15.50;3.60;;;13.70;99.90;;;;;;4894465;29;20193;-69
2023/10/12 08:13:16;;;;;;;14.63;3.70;;;13.70;99.90;;;;;;4892861;29;20208;-68
2023/10/12 08:15:56;;;;;;;21.48;3.38;;;13.70;99.90;;;;;;4907075;29;20193;-68
2023/10/12 08:21:30;;;;;;;19.63;3.70;;;13.80;99.90;;;;;;4895492;29;20237;-70
2023/10/12 08:24:10;;;;;;;19.60;3.10;;;13.90;99.90;;;;;;4889029;29;20672;-68
2023/10/12 08:29:17;;;;;;;14.45;3.60;;;14.00;99.90;;;;;;4896596;29;20235;-70
2023/10/12 08:31:43;;;;;;;14.60;2.95;;;14.10;99.90;;;;;;4895219;29;20204;-70
2023/10/12 08:34:41;;;;;;;14.95;3.05;;;14.20;99.90;;;;;;4896475;29;20192;-69
2023/10/12 08:44:59;;;;;;;16.40;2.40;;;14.50;99.90;;;;;;4900278;29;20191;-70
2023/10/12 08:50:07;;;;;;;12.40;2.42;;;14.60;99.90;;;;;;4899400;29;20227;-70
2023/10/12 08:52:36;;;;;;;13.38;2.45;;;14.70;99.90;;;;;;4899156;29;20188;-69
2023/10/12 08:55:11;;;;;;;14.13;2.70;;;14.70;99.90;;;;;;4894975;29;20208;-69
2023/10/12 08:58:01;;;;;;;12.48;2.42;;;14.70;99.90;;;;;;4887015;29;20199;-71
2023/10/12 09:03:06;;;;;;;13.52;2.28;;;14.80;99.90;;;;;;4893189;29;20228;-70
2023/10/12 09:05:33;;;;;;;11.35;2.30;;;14.90;99.90;;;;;;4892278;29;20199;-70
2023/10/12 09:13:28;;;;;;;14.35;3.05;;;15.00;99.90;;;;;;4893141;29;20185;-70
2023/10/12 09:15:59;;;;;;;10.48;2.28;;;15.10;99.90;;;;;;4889313;29;20209;-69
2023/10/12 09:18:32;;;;;;;14.82;2.17;;;15.20;99.90;;;;;;4894839;29;20189;-69
2023/10/12 09:23:31;;;;;;;10.90;2.22;;;15.30;99.90;;;;;;4890644;29;20287;-69
2023/10/12 09:37:06;;;;;;;17.02;2.33;;;15.60;99.90;;;;;;4898856;29;20208;-68
2023/10/12 09:39:34;;;;;;;13.07;2.42;;;15.60;99.90;;;;;;4894502;29;20189;-68
2023/10/12 09:42:19;;;;;;;8.63;2.25;;;15.70;99.90;;;;;;4912463;29;20342;-70
2023/10/12 09:44:51;;;;;;;9.25;2.20;;;15.70;99.90;;;;;;4897411;29;20203;-69
2023/10/12 09:47:25;;;;;;;11.10;2.28;;;15.80;99.90;;;;;;4888988;29;20194;-71
2023/10/12 09:49:58;;;;;;;11.02;2.20;;;15.70;99.90;;;;;;4892515;29;20207;-73
2023/10/12 09:52:41;;;;;;;13.48;2.08;;;15.70;99.90;;;;;;4898318;29;20216;-69
2023/10/12 09:55:14;;;;;;;12.15;2.05;;;15.60;99.90;;;;;;4893792;29;20291;-70
2023/10/12 09:57:49;;;;;;;10.00;2.13;;;15.60;99.90;;;;;;4894970;29;20220;-70
2023/10/12 10:00:53;;;;;;;8.57;2.13;;;15.60;99.90;;;;;;4907446;29;20649;-69
2023/10/12 10:03:08;;;;;;;9.80;2.25;;;15.60;99.90;;;;;;4892486;29;20300;-75
2023/10/12 10:08:26;;;;;;;12.48;2.33;;;15.60;99.90;;;;;;4895748;29;20638;-68
2023/10/12 10:10:57;;;;;;;12.75;2.08;;;15.60;99.90;;;;;;4898153;29;20222;-70
2023/10/12 10:13:46;;;;;;;8.98;2.15;;;15.60;99.90;;;;;;4899410;29;20200;-69
2023/10/12 10:16:17;;;;;;;14.27;2.10;;;15.60;99.90;;;;;;4898853;29;20239;-70
2023/10/12 10:18:56;;;;;;;14.95;2.17;;;15.60;99.90;;;;;;4898273;29;20199;-69
2023/10/12 10:21:31;;;;;;;12.13;2.35;;;15.60;99.90;;;;;;4898280;29;20311;-69
2023/10/12 10:23:57;;;;;;;18.75;2.00;;;15.60;99.90;;;;;;4899398;29;20192;-69
2023/10/12 10:26:30;;;;;;;9.90;1.92;;;15.60;99.90;;;;;;4898323;29;20603;-70
2023/10/12 10:29:07;;;;;;;12.65;2.58;;;15.60;99.90;;;;;;4898275;29;20193;-69
2023/10/12 10:31:41;;;;;;;12.38;1.88;;;15.60;99.90;;;;;;4895361;29;20216;-69
2023/10/12 10:34:10;;;;;;;14.10;1.98;;;15.60;99.90;;;;;;4898660;29;20204;-69
2023/10/12 10:36:36;;;;;;;11.57;2.28;;;15.70;99.90;;;;;;4912534;29;20229;-69
2023/10/12 10:39:14;;;;;;;10.68;2.00;;;15.70;99.90;;;;;;4887758;29;20618;-68
2023/10/12 10:41:46;;;;;;;12.82;2.28;;;15.80;99.90;;;;;;4897796;29;20196;-68
2023/10/12 10:44:15;;;;;;;17.10;2.00;;;15.80;99.90;;;;;;4897597;29;20279;-69
2023/10/12 10:46:44;;;;;;;14.30;2.53;;;15.80;99.90;;;;;;4897618;29;20196;-70
2023/10/12 10:49:17;;;;;;;13.32;2.15;;;15.80;99.90;;;;;;4897611;29;20201;-68
2023/10/12 10:51:48;;;;;;;8.05;1.75;;;15.80;99.90;;;;;;4896957;29;20270;-68
2023/10/12 10:54:21;;;;;;;20.52;2.58;;;15.80;99.90;;;;;;4898065;29;20258;-70
2023/10/12 10:56:53;;;;;;;16.98;3.42;;;15.80;99.90;;;;;;4896446;29;20271;-70
2023/10/12 10:59:19;;;;;;;15.90;2.22;;;15.90;99.90;;;;;;4898537;29;20211;-69
2023/10/12 11:01:48;;;;;;;17.92;2.28;;;16.00;99.90;;;;;;4898149;29;20642;-69
2023/10/12 11:06:54;;;;;;;14.27;2.10;;;16.00;99.90;;;;;;4897383;29;20196;-69
2023/10/12 11:09:47;;;;;;;11.77;2.15;;;16.00;99.90;;;;;;4912019;29;20240;-67
2023/10/12 11:12:14;;;;;;;11.93;2.10;;;16.00;99.90;;;;;;4895061;29;20209;-69
2023/10/12 11:14:52;;;;;;;12.27;2.75;;;16.00;99.90;;;;;;4896575;29;20275;-67
2023/10/12 11:17:21;;;;;;;14.20;2.42;;;16.10;99.90;;;;;;4895806;29;20265;-68
2023/10/12 11:19:50;;;;;;;11.75;2.30;;;16.00;99.90;;;;;;4897136;29;20621;-71
2023/10/12 11:22:17;;;;;;;15.52;2.15;;;16.00;99.90;;;;;;4896138;29;20315;-68
2023/10/12 11:24:48;;;;;;;15.57;2.35;;;16.10;99.90;;;;;;4897215;29;20197;-70
2023/10/12 11:27:32;;;;;;;12.65;2.20;;;16.10;99.90;;;;;;4896751;29;20192;-70
2023/10/12 11:30:06;;;;;;;13.65;2.30;;;16.10;99.90;;;;;;4895606;29;20216;-68
2023/10/12 11:32:33;;;;;;;11.95;2.33;;;16.20;99.90;;;;;;4896851;29;20201;-72
2023/10/12 11:35:06;;;;;;;8.90;2.40;;;16.30;99.90;;;;;;4897602;29;20203;-69
2023/10/12 11:37:38;;;;;;;14.27;2.50;;;16.40;99.90;;;;;;4897386;29;20197;-68
2023/10/12 11:40:07;;;;;;;16.30;2.28;;;16.50;99.90;;;;;;4895913;29;20189;-74
2023/10/12 11:42:33;;;;;;;14.90;2.38;;;16.70;99.90;;;;;;4910433;29;20200;-70
2023/10/12 11:45:06;;;;;;;11.90;3.35;;;16.80;99.90;;;;;;4897130;29;20287;-68
2023/10/12 11:47:37;;;;;;;11.55;2.40;;;16.90;99.90;;;;;;4896152;29;20228;-68
2023/10/12 11:50:09;;;;;;;13.10;2.25;;;17.00;99.90;;;;;;4897096;29;20219;-68
2023/10/12 11:52:37;;;;;;;18.15;2.13;;;17.20;99.90;;;;;;4896314;29;20553;-68
2023/10/12 11:55:06;;;;;;;13.38;4.30;;;17.30;99.90;;;;;;4896910;29;20218;-71
2023/10/12 11:57:41;;;;;;;12.15;2.13;;;17.30;99.90;;;;;;4894175;29;20224;-68
2023/10/12 12:00:20;;;;;;;10.23;2.25;;;17.50;99.90;;;;;;4896344;29;20196;-69
2023/10/12 12:02:57;;;;;;;11.18;2.42;;;17.60;99.90;;;;;;4895048;29;20279;-70
2023/10/12 12:05:25;;;;;;;11.30;2.10;;;17.60;99.90;;;;;;4896173;29;20207;-70
2023/10/12 12:07:51;;;;;;;11.30;2.28;;;17.70;99.90;;;;;;4895802;29;20235;-69
2023/10/12 12:10:27;;;;;;;15.48;2.85;;;17.80;99.90;;;;;;4896320;29;20308;-70
2023/10/12 12:12:52;;;;;;;9.13;2.67;;;17.80;99.90;;;;;;4910552;29;20566;-68
2023/10/12 12:15:19;;;;;;;8.00;2.10;;;17.80;99.90;;;;;;4895671;29;20184;-67
2023/10/12 12:17:46;;;;;;;7.50;2.20;;;17.80;99.90;;;;;;4896188;29;20219;-68
2023/10/12 12:20:21;;;;;;;12.80;2.53;;;17.80;99.90;;;;;;4895008;29;20193;-67
2023/10/12 12:22:50;;;;;;;11.20;2.03;;;17.80;99.90;;;;;;4896002;29;20677;-68
2023/10/12 12:25:20;;;;;;;16.65;2.50;;;17.80;99.90;;;;;;4895589;29;20562;-67
2023/10/12 12:27:48;;;;;;;12.60;2.35;;;17.80;99.90;;;;;;4892293;29;20200;-68
2023/10/12 12:30:23;;;;;;;11.45;2.80;;;17.80;99.90;;;;;;4895331;29;20215;-67
2023/10/12 12:32:49;;;;;;;15.15;4.47;;;17.90;99.90;;;;;;4894753;29;20220;-67
2023/10/12 12:35:15;;;;;;;15.02;5.05;;;17.90;99.90;;;;;;4896259;29;20284;-68
2023/10/12 12:37:41;;;;;;;17.88;2.70;;;17.90;99.90;;;;;;4894139;29;20291;-67
2023/10/12 12:42:53;;;;;;;9.90;2.75;;;17.90;99.90;;;;;;4895676;29;20665;-68
2023/10/12 12:45:19;;;;;;;18.52;2.20;;;17.90;99.90;;;;;;4896236;29;20197;-68
2023/10/12 12:47:44;;;;;;;12.20;2.15;;;17.90;99.90;;;;;;4896211;29;20224;-67
2023/10/12 12:50:10;;;;;;;8.20;2.03;;;17.90;99.90;;;;;;4895620;29;20735;-68
2023/10/12 12:52:36;;;;;;;8.07;2.00;;;17.90;99.90;;;;;;4894759;29;20204;-68
2023/10/12 12:55:10;;;;;;;11.77;2.35;;;17.90;99.90;;;;;;4896778;29;20209;-67
2023/10/12 12:57:42;;;;;;;15.95;4.60;;;17.90;99.90;;;;;;4909680;29;20200;-68
2023/10/12 13:00:09;;;;;;;8.07;2.10;;;17.90;99.90;;;;;;4895189;29;20196;-69
2023/10/12 13:02:36;;;;;;;13.68;2.30;;;17.90;99.90;;;;;;4896105;29;20321;-68
2023/10/12 13:05:07;;;;;;;11.80;2.30;;;18.00;99.90;;;;;;4896402;29;20193;-71
2023/10/12 13:07:34;;;;;;;14.90;1.90;;;18.00;99.90;;;;;;4895858;29;20192;-69
2023/10/12 13:10:02;;;;;;;7.25;1.98;;;18.00;99.90;;;;;;4894911;29;20570;-69
2023/10/12 13:12:31;;;;;;;14.38;2.10;;;17.90;99.90;;;;;;4896336;29;20212;-70
2023/10/12 13:15:00;;;;;;;13.07;2.70;;;17.90;99.90;;;;;;4896491;29;20224;-68
2023/10/12 13:17:30;;;;;;;12.60;3.63;;;17.90;99.90;;;;;;4894496;29;20188;-67
2023/10/12 13:20:00;;;;;;;12.65;3.42;;;18.00;99.90;;;;;;4896368;29;20188;-69
2023/10/12 13:22:26;;;;;;;11.88;2.72;;;18.00;99.90;;;;;;4895620;29;20240;-67
2023/10/12 13:24:56;;;;;;;10.63;2.95;;;18.00;99.90;;;;;;4895766;29;20263;-69
2023/10/12 13:27:24;;;;;;;18.05;2.38;;;17.90;99.90;;;;;;4905987;29;20256;-67
2023/10/12 13:29:51;;;;;;;11.65;2.20;;;17.90;99.90;;;;;;4897865;29;20299;-69
2023/10/12 13:32:17;;;;;;;14.55;3.33;;;17.90;99.90;;;;;;4897476;29;20197;-69
2023/10/12 13:34:43;;;;;;;9.63;2.25;;;17.80;99.90;;;;;;4899211;29;20200;-68
2023/10/12 13:37:13;;;;;;;12.95;2.40;;;17.80;99.90;;;;;;4896617;29;20287;-71
2023/10/12 13:39:39;;;;;;;13.60;2.88;;;17.70;99.90;;;;;;4898935;29;20668;-69
2023/10/12 13:42:11;;;;;;;12.05;2.05;;;17.70;99.90;;;;;;4898812;29;20645;-68
2023/10/12 13:44:41;;;;;;;17.55;5.80;;;17.60;99.90;;;;;;4897802;29;20220;-70
2023/10/12 13:47:07;;;;;;;13.25;2.90;;;17.60;99.90;;;;;;4899121;29;20249;-70
2023/10/12 13:49:37;;;;;;;14.00;2.20;;;17.60;99.90;;;;;;4898969;29;20193;-71
